createdAt,value
2018-06-09T00:02:48.227Z,17.10
2018-06-09T00:07:52.940Z,17.10
2018-06-09T00:12:57.807Z,17.10
2018-06-09T00:18:03.421Z,17.10
2018-06-09T00:23:08.044Z,17.10
2018-06-09T00:28:12.914Z,17.10
2018-06-09T00:33:17.647Z,17.00
2018-06-09T00:38:23.316Z,17.00
2018-06-09T00:43:28.148Z,17.10
2018-06-09T00:48:34.194Z,17.10
2018-06-09T00:53:38.985Z,17.20
2018-06-09T00:58:44.410Z,17.10
2018-06-09T01:03:49.461Z,17.10
2018-06-09T01:08:54.315Z,17.10
2018-06-09T01:13:59.334Z,17.00
2018-06-09T01:19:04.199Z,16.90
2018-06-09T01:24:09.005Z,16.90
2018-06-09T01:29:13.770Z,16.90
2018-06-09T01:34:18.714Z,16.90
2018-06-09T01:39:23.521Z,17.00
2018-06-09T01:44:28.230Z,17.10
2018-06-09T01:49:33.334Z,17.00
2018-06-09T01:54:38.155Z,17.00
2018-06-09T01:59:42.981Z,17.00
2018-06-09T02:04:47.800Z,17.10
2018-06-09T02:09:52.558Z,17.10
2018-06-09T02:14:57.209Z,17.10
2018-06-09T02:20:01.948Z,17.10
2018-06-09T02:25:06.657Z,17.00
2018-06-09T02:30:11.376Z,16.80
2018-06-09T02:35:16.061Z,16.70
2018-06-09T02:40:20.770Z,16.60
2018-06-09T02:45:25.613Z,16.60
2018-06-09T02:50:30.475Z,16.70
2018-06-09T02:55:35.175Z,16.70
2018-06-09T03:00:40.034Z,16.60
2018-06-09T03:05:44.896Z,16.60
2018-06-09T03:10:49.903Z,16.70
2018-06-09T03:15:54.642Z,16.60
2018-06-09T03:20:59.365Z,16.40
2018-06-09T03:26:04.078Z,16.10
2018-06-09T03:31:09.052Z,16.10
2018-06-09T03:36:14.743Z,16.20
2018-06-09T03:41:19.539Z,16.40
2018-06-09T03:46:24.792Z,16.50
2018-06-09T03:51:29.761Z,16.60
2018-06-09T03:56:34.719Z,16.60
2018-06-09T04:01:39.432Z,16.70
2018-06-09T04:06:44.146Z,16.90
2018-06-09T04:11:48.896Z,17.00
2018-06-09T04:16:53.517Z,17.00
2018-06-09T04:21:58.114Z,17.00
2018-06-09T04:27:02.903Z,17.10
2018-06-09T04:32:07.735Z,17.20
2018-06-09T04:37:12.813Z,17.30
2018-06-09T04:42:17.638Z,17.50
2018-06-09T04:52:26.784Z,17.70
2018-06-09T04:57:31.772Z,17.80
2018-06-09T05:02:37.846Z,17.80
2018-06-09T05:07:44.562Z,17.90
2018-06-09T05:12:49.432Z,18.10
2018-06-09T05:17:54.085Z,18.40
2018-06-09T05:22:58.890Z,18.60
2018-06-09T05:28:03.668Z,18.60
2018-06-09T05:33:08.450Z,18.50
2018-06-09T05:38:13.277Z,18.50
2018-06-09T05:43:18.277Z,18.70
2018-06-09T05:48:23.117Z,18.90
2018-06-09T05:53:27.725Z,19.00
2018-06-09T05:58:32.376Z,19.00
2018-06-09T06:08:41.561Z,19.30
2018-06-09T06:13:46.267Z,19.30
2018-06-09T06:18:50.986Z,19.30
2018-06-09T06:23:55.757Z,19.30
2018-06-09T06:29:00.458Z,19.50
2018-06-09T06:34:06.018Z,19.40
2018-06-09T06:39:10.873Z,19.60
2018-06-09T06:44:15.610Z,19.80
2018-06-09T06:49:20.364Z,20.10
2018-06-09T06:54:25.308Z,20.10
2018-06-09T06:59:30.439Z,20.50
2018-06-09T07:04:35.224Z,20.70
2018-06-09T07:09:40.001Z,20.60
2018-06-09T07:14:45.052Z,20.40
2018-06-09T07:19:50.012Z,20.90
2018-06-09T07:24:55.088Z,20.70
2018-06-09T07:29:59.984Z,20.90
2018-06-09T07:35:04.721Z,20.90
2018-06-09T07:40:09.576Z,20.90
2018-06-09T07:45:14.506Z,21.00
2018-06-09T07:50:19.107Z,21.40
2018-06-09T07:55:24.277Z,20.90
2018-06-09T08:00:29.096Z,21.10
2018-06-09T08:05:33.940Z,21.80
2018-06-09T08:10:38.581Z,21.60
2018-06-09T08:15:43.215Z,21.50
2018-06-09T08:20:48.140Z,21.70
2018-06-09T08:25:54.024Z,21.40
2018-06-09T08:30:58.869Z,21.50
2018-06-09T08:36:03.868Z,22.00
2018-06-09T08:41:08.770Z,21.90
2018-06-09T08:46:13.882Z,22.10
2018-06-09T08:51:18.655Z,22.80
2018-06-09T08:56:24.051Z,23.10
2018-06-09T09:01:28.801Z,23.50
2018-06-09T09:06:33.431Z,23.40
2018-06-09T09:11:38.305Z,23.60
2018-06-09T09:16:43.133Z,23.70
2018-06-09T09:21:48.575Z,23.90
2018-06-09T09:26:53.431Z,24.10
2018-06-09T09:31:58.281Z,24.10
2018-06-09T09:37:04.104Z,23.90
2018-06-09T09:42:08.716Z,24.00
2018-06-09T09:47:13.485Z,24.40
2018-06-09T09:52:18.501Z,24.80
2018-06-09T09:57:23.256Z,24.70
2018-06-09T10:02:28.097Z,24.10
2018-06-09T10:07:32.947Z,24.30
2018-06-09T10:12:37.580Z,24.50
2018-06-09T10:17:42.531Z,24.70
2018-06-09T10:22:47.679Z,24.50
2018-06-09T10:27:52.744Z,25.10
2018-06-09T10:32:57.560Z,25.50
2018-06-09T10:38:02.290Z,25.20
2018-06-09T10:43:07.131Z,25.10
2018-06-09T10:48:11.974Z,25.60
2018-06-09T10:53:16.904Z,25.70
2018-06-09T10:58:21.861Z,26.30
2018-06-09T11:03:26.775Z,26.30
2018-06-09T11:08:31.736Z,26.40
2018-06-09T11:13:37.420Z,26.40
2018-06-09T11:18:47.265Z,27.00
2018-06-09T11:23:53.080Z,27.50
2018-06-09T11:28:58.135Z,27.20
2018-06-09T11:34:03.214Z,27.60
2018-06-09T11:39:09.130Z,27.50
2018-06-09T11:44:14.073Z,26.80
2018-06-09T11:49:18.940Z,26.90
2018-06-09T11:54:23.590Z,26.80
2018-06-09T11:59:28.512Z,27.10
2018-06-09T12:04:33.331Z,28.10
2018-06-09T12:09:38.188Z,28.40
2018-06-09T12:14:43.121Z,29.20
2018-06-09T12:19:47.861Z,30.90
2018-06-09T12:24:52.797Z,32.00
2018-06-09T12:29:57.502Z,33.10
2018-06-09T12:35:02.155Z,34.60
2018-06-09T12:40:06.962Z,33.00
2018-06-09T12:45:11.705Z,33.50
2018-06-09T12:50:16.450Z,34.50
2018-06-09T12:55:21.386Z,35.50
2018-06-09T13:00:26.054Z,36.50
2018-06-09T13:05:30.990Z,36.30
2018-06-09T13:10:35.807Z,36.10
2018-06-09T13:15:40.657Z,35.80
2018-06-09T13:20:45.533Z,36.50
2018-06-09T13:25:50.540Z,37.30
2018-06-09T13:30:55.494Z,37.40
2018-06-09T13:36:00.218Z,36.70
2018-06-09T13:41:05.051Z,37.30
2018-06-09T13:46:09.804Z,36.90
2018-06-09T13:51:14.514Z,37.50
2018-06-09T13:56:19.420Z,38.80
2018-06-09T14:01:24.463Z,38.20
2018-06-09T14:06:30.085Z,38.00
2018-06-09T14:11:34.692Z,37.50
2018-06-09T14:16:39.424Z,38.40
2018-06-09T14:21:44.206Z,39.00
2018-06-09T14:26:49.324Z,38.20
2018-06-09T14:31:54.291Z,38.00
2018-06-09T14:36:59.300Z,38.80
2018-06-09T14:42:04.537Z,39.10
2018-06-09T14:47:09.162Z,39.70
2018-06-09T14:52:13.874Z,39.00
2018-06-09T14:57:18.673Z,38.40
2018-06-09T15:07:27.708Z,38.40
2018-06-09T15:12:32.345Z,39.80
2018-06-09T15:17:37.070Z,40.00
2018-06-09T15:22:41.749Z,40.50
2018-06-09T15:27:46.659Z,40.60
2018-06-09T15:32:52.532Z,39.00
2018-06-09T15:37:57.856Z,38.50
2018-06-09T15:43:02.611Z,38.50
2018-06-09T15:48:07.277Z,41.00
2018-06-09T15:53:21.774Z,40.80
2018-06-09T15:58:27.544Z,38.50
2018-06-09T16:03:48.089Z,38.20
2018-06-09T16:08:59.368Z,38.50
2018-06-09T16:14:18.034Z,40.40
2018-06-09T16:19:25.285Z,41.20
2018-06-09T16:24:30.072Z,42.30
2018-06-09T16:29:35.415Z,40.20
2018-06-09T16:34:40.359Z,39.20
2018-06-09T16:39:44.939Z,39.10
2018-06-09T16:45:02.069Z,39.30
2018-06-09T16:50:08.788Z,37.40
2018-06-09T16:55:13.346Z,37.30
2018-06-09T17:00:18.137Z,37.10
2018-06-09T17:05:22.864Z,35.80
2018-06-09T17:10:28.752Z,35.40
2018-06-09T17:15:34.105Z,34.60
2018-06-09T17:20:52.394Z,30.40
2018-06-09T17:31:23.499Z,27.80
2018-06-09T17:36:29.989Z,27.20
2018-06-09T17:41:52.502Z,27.00
2018-06-09T17:47:03.733Z,26.90
2018-06-09T17:52:20.581Z,26.40
2018-06-09T17:57:37.247Z,26.30
2018-06-09T18:02:55.964Z,26.20
2018-06-09T18:08:01.910Z,25.90
2018-06-09T18:13:08.085Z,25.60
2018-06-09T18:18:12.928Z,25.60
2018-06-09T18:23:18.248Z,25.60
2018-06-09T18:28:30.089Z,25.40
2018-06-09T18:33:37.045Z,25.10
2018-06-09T18:38:46.417Z,25.00
2018-06-09T18:43:54.820Z,24.70
2018-06-09T18:49:02.344Z,24.40
2018-06-09T18:54:08.501Z,24.20
2018-06-09T18:59:13.380Z,24.20
2018-06-09T19:04:18.317Z,24.10
2018-06-09T19:09:23.237Z,23.90
2018-06-09T19:14:28.158Z,23.90
2018-06-09T19:24:37.540Z,23.40
2018-06-09T19:29:42.617Z,23.20
2018-06-09T19:34:47.752Z,23.00
2018-06-09T19:39:52.449Z,23.00
2018-06-09T19:44:57.513Z,22.80
2018-06-09T19:50:02.578Z,22.70
2018-06-09T19:55:08.435Z,22.50
2018-06-09T20:00:13.183Z,22.30
2018-06-09T20:05:18.089Z,22.10
2018-06-09T20:10:23.512Z,21.90
2018-06-09T20:15:28.379Z,21.90
2018-06-09T20:20:33.291Z,21.60
2018-06-09T20:25:38.170Z,21.50
2018-06-09T20:30:43.335Z,21.30
2018-06-09T20:35:48.369Z,21.00
2018-06-09T20:40:55.313Z,21.20
2018-06-09T20:46:00.521Z,21.50
2018-06-09T20:51:05.378Z,21.70
2018-06-09T20:56:10.653Z,21.60
2018-06-09T21:01:15.517Z,21.70
2018-06-09T21:06:20.448Z,21.80
2018-06-09T21:11:25.455Z,21.90
2018-06-09T21:16:30.423Z,21.70
2018-06-09T21:21:35.355Z,21.50
2018-06-09T21:26:45.399Z,21.20
2018-06-09T21:31:50.083Z,21.20
2018-06-09T21:36:56.721Z,21.30
2018-06-09T21:42:07.554Z,21.30
2018-06-09T21:47:12.456Z,21.20
2018-06-09T21:52:17.083Z,21.10
2018-06-09T21:57:21.869Z,21.00
2018-06-09T22:02:26.663Z,21.00
2018-06-09T22:07:31.372Z,20.90
2018-06-09T22:12:36.253Z,20.80
2018-06-09T22:17:41.068Z,20.50
2018-06-09T22:22:45.848Z,20.40
2018-06-09T22:27:50.763Z,20.40
2018-06-09T22:32:55.569Z,20.40
2018-06-09T22:38:00.340Z,20.30
2018-06-09T22:43:04.941Z,20.00
2018-06-09T22:48:09.905Z,19.70
2018-06-09T22:53:14.969Z,19.70
2018-06-09T22:58:19.574Z,19.70
2018-06-09T23:03:24.361Z,19.90
2018-06-09T23:08:29.160Z,19.90
2018-06-09T23:13:33.880Z,19.70
2018-06-09T23:23:43.047Z,19.70
2018-06-09T23:28:47.991Z,19.40
2018-06-09T23:33:52.836Z,19.30
2018-06-09T23:38:57.470Z,19.40
2018-06-09T23:44:02.285Z,19.60
2018-06-09T23:49:07.035Z,19.80
2018-06-09T23:54:11.989Z,19.80
2018-06-09T23:59:16.695Z,19.80
